createdAt,value
2018-11-27T00:00:42.410Z,2.10
2018-11-27T00:03:11.754Z,2.20
2018-11-27T00:05:40.105Z,2.10
2018-11-27T00:08:08.759Z,2.10
2018-11-27T00:10:38.938Z,2.20
2018-11-27T00:13:11.807Z,2.10
2018-11-27T00:15:40.966Z,2.10
2018-11-27T00:18:09.521Z,2.10
2018-11-27T00:20:38.469Z,2.20
2018-11-27T00:23:06.868Z,2.20
2018-11-27T00:25:37.053Z,2.10
2018-11-27T00:28:05.706Z,2.00
2018-11-27T00:30:34.914Z,2.10
2018-11-27T00:33:04.074Z,2.30
2018-11-27T00:35:33.211Z,2.40
2018-11-27T00:38:02.405Z,2.40
2018-11-27T00:40:31.528Z,2.50
2018-11-27T00:42:59.877Z,2.60
2018-11-27T00:45:28.857Z,2.50
2018-11-27T00:47:57.452Z,2.60
2018-11-27T00:50:25.941Z,2.60
2018-11-27T00:52:55.189Z,2.50
2018-11-27T00:55:23.525Z,2.60
2018-11-27T00:57:52.747Z,2.60
2018-11-27T01:00:23.871Z,2.50
2018-11-27T01:02:53.168Z,2.40
2018-11-27T01:05:22.939Z,2.60
2018-11-27T01:07:51.367Z,2.40
2018-11-27T01:10:22.526Z,2.20
2018-11-27T01:12:51.338Z,2.20
2018-11-27T01:15:20.007Z,2.10
2018-11-27T01:17:50.744Z,2.10
2018-11-27T01:20:20.319Z,2.20
2018-11-27T01:22:49.067Z,2.10
2018-11-27T01:25:18.147Z,2.10
2018-11-27T01:27:46.497Z,2.10
2018-11-27T01:30:17.853Z,2.00
2018-11-27T01:32:47.685Z,2.00
2018-11-27T01:35:18.757Z,2.20
2018-11-27T01:37:48.036Z,2.30
2018-11-27T01:40:21.155Z,2.30
2018-11-27T01:42:53.225Z,2.20
2018-11-27T01:45:22.477Z,2.10
2018-11-27T01:47:51.830Z,2.10
2018-11-27T01:50:21.574Z,2.10
2018-11-27T01:52:50.507Z,2.10
2018-11-27T01:55:20.081Z,2.10
2018-11-27T01:57:48.458Z,2.10
2018-11-27T02:00:21.624Z,2.10
2018-11-27T02:02:50.664Z,2.10
2018-11-27T02:05:19.642Z,2.20
2018-11-27T02:07:49.145Z,2.10
2018-11-27T02:10:17.599Z,2.10
2018-11-27T02:12:47.352Z,2.00
2018-11-27T02:15:18.241Z,2.20
2018-11-27T02:17:46.606Z,2.30
2018-11-27T02:20:15.792Z,2.30
2018-11-27T02:22:44.842Z,2.20
2018-11-27T02:25:21.957Z,2.20
2018-11-27T02:27:51.033Z,2.20
2018-11-27T02:30:21.504Z,2.20
2018-11-27T02:32:50.689Z,2.20
2018-11-27T02:35:20.157Z,2.20
2018-11-27T02:37:49.572Z,2.20
2018-11-27T02:40:19.809Z,2.40
2018-11-27T02:42:48.243Z,2.40
2018-11-27T02:45:18.088Z,2.40
2018-11-27T02:47:47.267Z,2.30
2018-11-27T02:50:17.194Z,2.20
2018-11-27T02:52:45.926Z,2.30
2018-11-27T02:55:16.826Z,2.40
2018-11-27T02:57:45.518Z,2.30
2018-11-27T03:00:24.905Z,2.30
2018-11-27T03:02:53.386Z,2.30
2018-11-27T03:05:30.323Z,2.30
2018-11-27T03:07:58.762Z,2.10
2018-11-27T03:10:28.894Z,2.20
2018-11-27T03:12:57.509Z,2.20
2018-11-27T03:15:25.946Z,2.20
2018-11-27T03:17:54.509Z,2.20
2018-11-27T03:20:23.377Z,2.30
2018-11-27T03:22:52.613Z,2.20
2018-11-27T03:25:22.286Z,2.30
2018-11-27T03:27:51.805Z,2.20
2018-11-27T03:30:23.499Z,2.10
2018-11-27T03:32:53.047Z,2.30
2018-11-27T03:35:24.459Z,2.30
2018-11-27T03:37:53.543Z,2.30
2018-11-27T03:40:23.117Z,2.30
2018-11-27T03:42:51.492Z,2.40
2018-11-27T03:45:20.685Z,2.50
2018-11-27T03:47:49.346Z,2.40
2018-11-27T03:50:20.147Z,2.50
2018-11-27T03:52:48.609Z,2.40
2018-11-27T03:55:17.489Z,2.30
2018-11-27T03:57:45.910Z,2.30
2018-11-27T04:00:26.916Z,2.40
2018-11-27T04:03:11.712Z,2.30
2018-11-27T04:05:40.890Z,2.40
2018-11-27T04:08:10.066Z,2.60
2018-11-27T04:10:39.762Z,2.40
2018-11-27T04:13:08.174Z,2.50
2018-11-27T04:15:36.633Z,2.50
2018-11-27T04:18:05.660Z,2.60
2018-11-27T04:20:34.112Z,2.70
2018-11-27T04:23:02.567Z,2.70
2018-11-27T04:25:31.035Z,2.40
2018-11-27T04:27:59.468Z,2.40
2018-11-27T04:30:28.845Z,2.40
2018-11-27T04:32:57.465Z,2.60
2018-11-27T04:35:26.270Z,2.60
2018-11-27T04:37:55.960Z,2.60
2018-11-27T04:40:24.474Z,2.50
2018-11-27T04:42:53.250Z,2.50
2018-11-27T04:45:26.463Z,2.40
2018-11-27T04:47:55.784Z,2.30
2018-11-27T04:50:24.884Z,2.40
2018-11-27T04:52:53.676Z,2.50
2018-11-27T04:55:22.653Z,2.50
2018-11-27T04:57:53.090Z,2.50
2018-11-27T05:00:23.861Z,2.30
2018-11-27T05:02:53.199Z,2.30
2018-11-27T05:05:22.648Z,2.30
2018-11-27T05:07:57.375Z,2.20
2018-11-27T05:10:26.140Z,2.40
2018-11-27T05:12:54.577Z,2.50
2018-11-27T05:15:24.389Z,2.30
2018-11-27T05:17:58.995Z,2.40
2018-11-27T05:20:28.577Z,2.50
2018-11-27T05:22:57.950Z,2.40
2018-11-27T05:25:27.984Z,2.40
2018-11-27T05:27:58.501Z,2.30
2018-11-27T05:30:28.570Z,2.20
2018-11-27T05:32:58.250Z,2.10
2018-11-27T05:35:30.630Z,2.10
2018-11-27T05:38:01.683Z,2.20
2018-11-27T05:40:30.772Z,2.30
2018-11-27T05:43:04.472Z,2.30
2018-11-27T05:45:33.430Z,2.10
2018-11-27T05:48:03.285Z,2.10
2018-11-27T05:50:31.660Z,2.00
2018-11-27T05:53:01.315Z,2.10
2018-11-27T05:55:30.446Z,2.10
2018-11-27T05:58:00.249Z,2.10
2018-11-27T06:00:30.507Z,2.10
2018-11-27T06:03:02.885Z,2.10
2018-11-27T06:05:32.740Z,2.10
2018-11-27T06:08:03.902Z,2.10
2018-11-27T06:10:39.273Z,2.10
2018-11-27T06:13:09.196Z,2.10
2018-11-27T06:15:40.281Z,2.10
2018-11-27T06:18:09.264Z,2.10
2018-11-27T06:20:39.350Z,2.20
2018-11-27T06:23:07.932Z,2.40
2018-11-27T06:25:37.057Z,2.40
2018-11-27T06:28:07.359Z,2.50
2018-11-27T06:30:37.151Z,2.40
2018-11-27T06:33:06.525Z,2.60
2018-11-27T06:35:41.866Z,2.60
2018-11-27T06:38:12.307Z,2.50
2018-11-27T06:40:42.921Z,2.50
2018-11-27T06:43:12.962Z,2.50
2018-11-27T06:45:45.697Z,2.50
2018-11-27T06:48:14.126Z,2.50
2018-11-27T06:50:44.107Z,2.50
2018-11-27T06:53:12.922Z,2.50
2018-11-27T06:55:41.836Z,2.40
2018-11-27T06:58:10.201Z,2.50
2018-11-27T07:00:38.813Z,2.50
2018-11-27T07:03:10.899Z,2.50
2018-11-27T07:05:39.692Z,2.40
2018-11-27T07:08:13.475Z,2.50
2018-11-27T07:10:44.768Z,2.40
2018-11-27T07:13:17.746Z,2.40
2018-11-27T07:15:47.868Z,2.30
2018-11-27T07:18:16.332Z,2.30
2018-11-27T07:20:45.315Z,2.20
2018-11-27T07:23:14.606Z,2.30
2018-11-27T07:25:43.174Z,2.20
2018-11-27T07:28:12.415Z,2.10
2018-11-27T07:30:41.884Z,2.20
2018-11-27T07:33:10.519Z,2.20
2018-11-27T07:35:40.550Z,2.30
2018-11-27T07:38:10.145Z,2.30
2018-11-27T07:40:39.540Z,2.40
2018-11-27T07:43:10.707Z,2.40
2018-11-27T07:45:39.680Z,2.50
2018-11-27T07:48:10.763Z,2.60
2018-11-27T07:50:40.996Z,2.70
2018-11-27T07:53:10.465Z,2.70
2018-11-27T07:55:39.589Z,2.80
2018-11-27T07:58:08.505Z,2.80
2018-11-27T08:00:37.334Z,3.00
2018-11-27T08:03:06.535Z,3.00
2018-11-27T08:05:40.692Z,3.00
2018-11-27T08:08:12.750Z,2.90
2018-11-27T08:10:41.702Z,2.80
2018-11-27T08:13:10.891Z,2.90
2018-11-27T08:15:39.765Z,2.90
2018-11-27T08:18:09.489Z,3.00
2018-11-27T08:20:38.834Z,2.90
2018-11-27T08:23:08.127Z,2.90
2018-11-27T08:25:47.743Z,3.10
2018-11-27T08:28:17.633Z,3.10
2018-11-27T08:30:52.930Z,3.00
2018-11-27T08:33:24.060Z,3.00
2018-11-27T08:41:23.977Z,3.10
2018-11-27T08:43:51.937Z,3.20
2018-11-27T08:46:20.241Z,3.10
2018-11-27T08:48:49.390Z,3.10
2018-11-27T08:51:18.425Z,3.20
2018-11-27T08:53:47.225Z,3.40
2018-11-27T08:56:15.636Z,3.20
2018-11-27T08:58:45.470Z,3.10
2018-11-27T09:01:15.802Z,3.00
2018-11-27T09:03:46.535Z,3.20
2018-11-27T09:06:13.824Z,3.20
2018-11-27T09:08:42.376Z,3.40
2018-11-27T09:11:10.755Z,3.40
2018-11-27T09:13:40.249Z,3.30
2018-11-27T09:16:08.886Z,3.40
2018-11-27T09:18:38.694Z,3.60
2018-11-27T09:21:08.107Z,3.70
2018-11-27T09:23:36.848Z,3.70
2018-11-27T09:26:07.508Z,3.80
2018-11-27T09:37:36.244Z,3.30
2018-11-27T09:42:46.292Z,3.30
2018-11-27T09:59:25.398Z,3.70
2018-11-27T10:02:01.031Z,3.60
2018-11-27T10:04:31.279Z,3.50
2018-11-27T10:06:59.786Z,3.40
2018-11-27T10:09:29.282Z,3.60
2018-11-27T10:11:58.272Z,3.70
2018-11-27T10:14:28.717Z,3.50
2018-11-27T10:16:58.644Z,3.50
2018-11-27T10:19:28.224Z,3.60
2018-11-27T10:21:56.738Z,3.90
2018-11-27T10:24:25.830Z,3.80
2018-11-27T10:27:00.673Z,3.90
2018-11-27T10:29:29.289Z,3.70
2018-11-27T10:31:59.426Z,3.70
2018-11-27T10:34:28.611Z,3.80
2018-11-27T10:37:01.832Z,3.70
2018-11-27T10:39:31.473Z,3.70
2018-11-27T10:42:00.703Z,3.60
2018-11-27T10:44:29.652Z,3.60
2018-11-27T10:47:11.289Z,3.80
2018-11-27T11:14:45.552Z,3.60
2018-11-27T11:17:14.597Z,3.50
2018-11-27T11:19:46.656Z,3.50
2018-11-27T11:22:15.679Z,3.60
2018-11-27T11:24:45.572Z,3.60
2018-11-27T11:27:14.900Z,3.80
2018-11-27T11:29:43.866Z,3.90
2018-11-27T11:32:17.141Z,4.10
2018-11-27T11:34:45.879Z,4.30
2018-11-27T11:37:15.796Z,4.30
2018-11-27T11:39:44.706Z,4.20
2018-11-27T11:44:48.760Z,4.20
2018-11-27T11:47:18.004Z,4.00
2018-11-27T11:49:46.870Z,4.00
2018-11-27T11:52:16.423Z,4.00
2018-11-27T11:54:46.540Z,3.90
2018-11-27T11:57:16.664Z,3.80
2018-11-27T11:59:47.566Z,3.60
2018-11-27T12:02:16.110Z,3.60
2018-11-27T12:04:44.814Z,3.80
2018-11-27T12:07:14.022Z,3.80
2018-11-27T12:09:44.110Z,3.70
2018-11-27T12:12:18.719Z,3.70
2018-11-27T12:14:52.040Z,3.50
2018-11-27T12:17:25.626Z,3.70
2018-11-27T12:19:57.254Z,3.50
2018-11-27T12:22:30.428Z,3.40
2018-11-27T12:25:10.879Z,3.40
2018-11-27T12:27:42.714Z,3.60
2018-11-27T12:30:28.651Z,3.80
2018-11-27T12:35:44.393Z,4.00
2018-11-27T12:38:13.296Z,4.20
2018-11-27T12:40:43.279Z,4.30
2018-11-27T12:43:12.986Z,4.20
2018-11-27T12:45:48.714Z,4.20
2018-11-27T12:48:19.377Z,4.10
2018-11-27T12:50:50.029Z,3.90
2018-11-27T12:53:27.823Z,3.60
2018-11-27T12:56:15.319Z,3.60
2018-11-27T12:58:46.282Z,3.50
2018-11-27T13:01:26.913Z,3.60
2018-11-27T13:03:57.537Z,3.80
2018-11-27T13:06:29.551Z,3.80
2018-11-27T13:08:58.221Z,3.90
2018-11-27T13:11:26.986Z,3.80
2018-11-27T13:13:56.502Z,3.70
2018-11-27T13:16:24.980Z,3.80
2018-11-27T13:18:55.591Z,3.80
2018-11-27T13:21:25.740Z,3.90
2018-11-27T13:23:55.953Z,4.00
2018-11-27T13:26:25.950Z,4.00
2018-11-27T13:28:54.483Z,3.90
2018-11-27T13:31:25.340Z,3.90
2018-11-27T13:34:04.129Z,3.80
2018-11-27T13:36:33.196Z,3.70
2018-11-27T13:39:13.594Z,3.70
2018-11-27T13:41:42.391Z,3.90
2018-11-27T13:44:12.737Z,3.90
2018-11-27T13:46:41.363Z,3.80
2018-11-27T13:49:10.517Z,3.80
2018-11-27T13:51:39.010Z,3.80
2018-11-27T13:54:08.671Z,3.60
2018-11-27T13:56:37.177Z,3.60
2018-11-27T13:59:05.813Z,3.50
2018-11-27T14:01:37.704Z,3.50
2018-11-27T14:04:04.473Z,3.50
2018-11-27T14:06:33.277Z,3.60
2018-11-27T14:09:01.669Z,3.50
2018-11-27T14:11:30.653Z,3.50
2018-11-27T14:13:59.510Z,3.50
2018-11-27T14:16:30.350Z,3.50
2018-11-27T14:18:58.871Z,3.40
2018-11-27T14:21:28.778Z,3.60
2018-11-27T14:23:57.177Z,3.60
2018-11-27T14:26:25.725Z,3.60
2018-11-27T14:28:54.326Z,3.50
2018-11-27T14:31:23.573Z,3.60
2018-11-27T14:33:54.550Z,3.60
2018-11-27T14:36:23.210Z,3.60
2018-11-27T14:38:51.743Z,3.60
2018-11-27T14:41:20.864Z,3.40
2018-11-27T14:43:49.346Z,3.40
2018-11-27T14:46:17.675Z,3.30
2018-11-27T14:48:50.625Z,3.30
2018-11-27T14:51:23.825Z,3.30
2018-11-27T14:53:52.347Z,3.40
2018-11-27T14:56:21.808Z,3.40
2018-11-27T14:58:50.972Z,3.30
2018-11-27T15:01:25.184Z,3.40
2018-11-27T15:06:31.059Z,3.40
2018-11-27T15:11:35.062Z,3.40
2018-11-27T15:14:05.225Z,3.50
2018-11-27T15:16:34.607Z,3.50
2018-11-27T15:19:10.494Z,3.50
2018-11-27T15:21:41.623Z,3.50
2018-11-27T15:24:30.559Z,3.30
2018-11-27T15:27:07.419Z,3.40
2018-11-27T15:29:43.574Z,3.30
2018-11-27T15:32:14.891Z,3.30
2018-11-27T15:34:48.777Z,3.20
2018-11-27T15:37:19.672Z,3.20
2018-11-27T15:39:54.592Z,3.10
2018-11-27T15:42:27.331Z,3.10
2018-11-27T15:45:00.906Z,3.00
2018-11-27T15:47:29.842Z,3.10
2018-11-27T15:50:07.452Z,3.10
2018-11-27T15:58:15.307Z,3.10
2018-11-27T16:00:49.001Z,3.10
2018-11-27T16:03:18.337Z,3.10
2018-11-27T16:05:48.416Z,3.10
2018-11-27T16:08:23.883Z,3.10
2018-11-27T16:16:34.001Z,3.30
2018-11-27T16:19:07.178Z,3.40
2018-11-27T16:21:35.726Z,3.30
2018-11-27T16:24:05.163Z,3.30
2018-11-27T16:26:35.796Z,3.20
2018-11-27T16:29:08.163Z,3.20
2018-11-27T16:31:38.193Z,3.10
2018-11-27T16:34:06.845Z,3.30
2018-11-27T16:36:35.318Z,3.40
2018-11-27T16:39:06.809Z,3.50
2018-11-27T16:41:36.601Z,3.50
2018-11-27T16:44:05.499Z,3.30
2018-11-27T16:46:34.822Z,3.30
2018-11-27T16:49:05.614Z,3.20
2018-11-27T16:51:35.303Z,3.20
2018-11-27T16:54:05.182Z,3.10
2018-11-27T16:56:33.674Z,3.30
2018-11-27T16:59:02.154Z,3.30
2018-11-27T17:01:31.414Z,3.30
2018-11-27T17:04:00.786Z,3.40
2018-11-27T17:06:31.081Z,3.40
2018-11-27T17:08:59.531Z,3.40
2018-11-27T17:11:28.878Z,3.30
2018-11-27T17:13:57.392Z,3.20
2018-11-27T17:16:26.846Z,3.20
2018-11-27T17:18:56.380Z,3.30
2018-11-27T17:21:26.138Z,3.30
2018-11-27T17:23:55.419Z,3.30
2018-11-27T17:26:24.412Z,3.40
2018-11-27T17:28:53.576Z,3.30
2018-11-27T17:31:22.866Z,3.20
2018-11-27T17:34:05.146Z,3.20
2018-11-27T17:36:33.789Z,3.20
2018-11-27T17:39:02.385Z,3.30
2018-11-27T17:41:31.893Z,3.40
2018-11-27T17:44:01.106Z,3.30
2018-11-27T17:46:30.180Z,3.30
2018-11-27T17:48:59.118Z,3.50
2018-11-27T17:51:28.030Z,3.50
2018-11-27T17:53:57.884Z,3.40
2018-11-27T17:56:26.667Z,3.40
2018-11-27T17:59:00.635Z,3.40
2018-11-27T18:01:33.256Z,3.40
2018-11-27T18:04:05.611Z,3.40
2018-11-27T18:06:34.377Z,3.40
2018-11-27T18:09:02.974Z,3.30
2018-11-27T18:11:32.307Z,3.20
2018-11-27T18:14:01.316Z,3.10
2018-11-27T18:16:39.829Z,3.10
2018-11-27T18:19:09.285Z,3.10
2018-11-27T18:21:39.637Z,3.10
2018-11-27T18:24:08.157Z,3.00
2018-11-27T18:26:36.705Z,3.00
2018-11-27T18:29:05.748Z,3.00
2018-11-27T18:31:34.133Z,3.00
2018-11-27T18:34:02.512Z,3.00
2018-11-27T18:36:32.885Z,3.00
2018-11-27T18:39:01.298Z,3.00
2018-11-27T18:41:29.645Z,3.10
2018-11-27T18:43:58.551Z,3.00
2018-11-27T18:46:26.843Z,3.10
2018-11-27T18:48:56.045Z,3.10
2018-11-27T18:51:24.545Z,3.00
2018-11-27T18:53:55.020Z,3.00
2018-11-27T18:56:21.441Z,3.00
2018-11-27T18:58:49.833Z,3.00
2018-11-27T19:01:18.804Z,3.00
2018-11-27T19:03:47.491Z,3.10
2018-11-27T19:06:15.979Z,3.10
2018-11-27T19:08:44.483Z,3.00
2018-11-27T19:11:13.062Z,3.10
2018-11-27T19:13:41.965Z,3.00
2018-11-27T19:16:10.575Z,3.00
2018-11-27T19:18:40.009Z,3.00
2018-11-27T19:21:08.442Z,3.00
2018-11-27T19:23:37.818Z,3.10
2018-11-27T19:26:07.959Z,3.00
2018-11-27T19:28:36.296Z,3.10
2018-11-27T19:31:04.671Z,3.00
2018-11-27T19:33:33.573Z,3.10
2018-11-27T19:36:03.570Z,3.20
2018-11-27T19:38:33.580Z,3.10
2018-11-27T19:41:02.000Z,3.10
2018-11-27T19:43:30.365Z,3.10
2018-11-27T19:45:58.763Z,3.20
2018-11-27T19:48:27.144Z,3.20
2018-11-27T19:50:55.531Z,3.20
2018-11-27T19:53:23.954Z,3.30
2018-11-27T19:55:53.189Z,3.30
2018-11-27T19:58:22.427Z,3.30
2018-11-27T20:00:51.475Z,3.30
2018-11-27T20:03:20.281Z,3.40
2018-11-27T20:05:49.014Z,3.40
2018-11-27T20:08:17.919Z,3.40
2018-11-27T20:10:46.369Z,3.30
2018-11-27T20:13:14.798Z,3.20
2018-11-27T20:15:43.163Z,3.20
2018-11-27T20:18:12.794Z,3.20
2018-11-27T20:20:41.496Z,3.20
2018-11-27T20:23:10.189Z,3.10
2018-11-27T20:25:39.464Z,3.10
2018-11-27T20:28:08.780Z,3.10
2018-11-27T20:30:38.827Z,3.10
2018-11-27T20:33:17.210Z,3.20
2018-11-27T20:35:45.897Z,3.10
2018-11-27T20:38:16.008Z,3.20
2018-11-27T20:40:44.391Z,3.30
2018-11-27T20:43:12.846Z,3.30
2018-11-27T20:45:41.497Z,3.30
2018-11-27T20:48:13.914Z,3.40
2018-11-27T20:50:43.233Z,3.30
2018-11-27T20:53:11.611Z,3.10
2018-11-27T20:55:40.618Z,3.10
2018-11-27T20:58:09.111Z,3.10
2018-11-27T21:00:39.040Z,3.10
2018-11-27T21:03:08.625Z,3.10
2018-11-27T21:05:37.201Z,3.10
2018-11-27T21:08:07.751Z,3.20
2018-11-27T21:10:37.517Z,3.20
2018-11-27T21:13:08.316Z,3.20
2018-11-27T21:15:38.166Z,3.30
2018-11-27T21:18:08.202Z,3.40
2018-11-27T21:20:39.304Z,3.30
2018-11-27T21:23:07.912Z,3.20
2018-11-27T21:25:36.317Z,3.10
2018-11-27T21:28:07.809Z,3.00
2018-11-27T21:30:36.338Z,3.00
2018-11-27T21:33:05.091Z,2.90
2018-11-27T21:35:34.411Z,3.00
2018-11-27T21:38:03.473Z,3.00
2018-11-27T21:40:31.803Z,3.10
2018-11-27T21:43:00.413Z,3.10
2018-11-27T21:45:30.577Z,3.00
2018-11-27T21:48:00.466Z,3.00
2018-11-27T21:50:34.452Z,3.00
2018-11-27T21:53:02.838Z,3.10
2018-11-27T21:55:31.397Z,3.00
2018-11-27T21:58:00.453Z,3.00
2018-11-27T22:00:28.822Z,3.00
2018-11-27T22:02:57.259Z,3.00
2018-11-27T22:05:25.647Z,3.00
2018-11-27T22:07:54.476Z,3.00
2018-11-27T22:10:23.966Z,3.00
2018-11-27T22:12:56.722Z,3.00
2018-11-27T22:15:28.952Z,3.00
2018-11-27T22:17:57.390Z,3.00
2018-11-27T22:20:25.882Z,2.90
2018-11-27T22:22:54.366Z,2.90
2018-11-27T22:25:22.703Z,2.90
2018-11-27T22:27:51.129Z,2.90
2018-11-27T22:30:20.255Z,2.90
2018-11-27T22:32:51.600Z,2.90
2018-11-27T22:35:20.031Z,2.80
2018-11-27T22:37:48.377Z,2.70
2018-11-27T22:40:17.733Z,2.70
2018-11-27T22:42:46.631Z,2.70
2018-11-27T22:45:16.726Z,2.70
2018-11-27T22:47:45.400Z,2.70
2018-11-27T22:50:15.198Z,2.70
2018-11-27T22:52:44.512Z,2.70
2018-11-27T22:55:14.469Z,2.60
2018-11-27T22:57:45.409Z,2.60
2018-11-27T23:00:27.333Z,2.70
2018-11-27T23:02:55.835Z,2.70
2018-11-27T23:05:24.273Z,2.70
2018-11-27T23:07:52.893Z,2.60
2018-11-27T23:10:22.412Z,2.60
2018-11-27T23:12:51.013Z,2.60
2018-11-27T23:15:21.291Z,2.50
2018-11-27T23:17:49.708Z,2.50
2018-11-27T23:20:18.625Z,2.50
2018-11-27T23:22:47.066Z,2.50
2018-11-27T23:25:16.446Z,2.40
2018-11-27T23:27:44.760Z,2.40
2018-11-27T23:30:18.329Z,2.50
2018-11-27T23:32:46.870Z,2.50
2018-11-27T23:35:15.218Z,2.40
2018-11-27T23:37:43.548Z,2.50
2018-11-27T23:40:16.753Z,2.50
2018-11-27T23:42:45.480Z,2.50
2018-11-27T23:45:14.800Z,2.50
2018-11-27T23:47:43.138Z,2.40
2018-11-27T23:50:12.420Z,2.40
2018-11-27T23:52:41.907Z,2.40
2018-11-27T23:55:11.198Z,2.50
2018-11-27T23:57:39.981Z,2.50
